sensor_id;sensor_type;location;lat;lon;timestamp;P1;durP1;ratioP1;P2;durP2;ratioP2
14939;SDS011;11825;51.898;8.202;2023-12-14T00:03:21;11.90;;;9.13;;
14939;SDS011;11825;51.898;8.202;2023-12-14T00:15:36;13.70;;;9.63;;
14939;SDS011;11825;51.898;8.202;2023-12-14T00:33:34;11.57;;;8.93;;
14939;SDS011;11825;51.898;8.202;2023-12-14T00:52:51;9.50;;;7.10;;
14939;SDS011;11825;51.898;8.202;2023-12-14T00:58:06;8.20;;;6.23;;
14939;SDS011;11825;51.898;8.202;2023-12-14T01:03:18;8.80;;;5.93;;
14939;SDS011;11825;51.898;8.202;2023-12-14T01:08:20;10.60;;;6.67;;
14939;SDS011;11825;51.898;8.202;2023-12-14T01:13:25;8.17;;;6.53;;
14939;SDS011;11825;51.898;8.202;2023-12-14T01:18:27;7.43;;;6.53;;
14939;SDS011;11825;51.898;8.202;2023-12-14T01:23:46;9.83;;;7.13;;
14939;SDS011;11825;51.898;8.202;2023-12-14T01:28:53;8.70;;;6.63;;
14939;SDS011;11825;51.898;8.202;2023-12-14T01:34:35;9.23;;;6.57;;
14939;SDS011;11825;51.898;8.202;2023-12-14T01:39:48;8.57;;;6.10;;
14939;SDS011;11825;51.898;8.202;2023-12-14T01:44:54;8.13;;;6.13;;
14939;SDS011;11825;51.898;8.202;2023-12-14T01:50:31;8.70;;;6.50;;
14939;SDS011;11825;51.898;8.202;2023-12-14T01:55:35;10.83;;;7.90;;
14939;SDS011;11825;51.898;8.202;2023-12-14T02:06:23;10.07;;;7.33;;
14939;SDS011;11825;51.898;8.202;2023-12-14T02:11:25;12.00;;;8.90;;
14939;SDS011;11825;51.898;8.202;2023-12-14T02:16:36;12.83;;;8.77;;
14939;SDS011;11825;51.898;8.202;2023-12-14T02:28:10;11.37;;;9.63;;
14939;SDS011;11825;51.898;8.202;2023-12-14T02:33:13;11.80;;;9.50;;
14939;SDS011;11825;51.898;8.202;2023-12-14T02:38:21;11.97;;;9.60;;
14939;SDS011;11825;51.898;8.202;2023-12-14T02:43:32;11.30;;;9.20;;
14939;SDS011;11825;51.898;8.202;2023-12-14T02:48:35;12.23;;;7.80;;
14939;SDS011;11825;51.898;8.202;2023-12-14T02:53:48;8.40;;;7.33;;
14939;SDS011;11825;51.898;8.202;2023-12-14T02:58:49;9.93;;;8.10;;
14939;SDS011;11825;51.898;8.202;2023-12-14T03:04:07;7.83;;;6.47;;
14939;SDS011;11825;51.898;8.202;2023-12-14T03:09:21;9.37;;;5.93;;
14939;SDS011;11825;51.898;8.202;2023-12-14T03:14:31;8.47;;;5.67;;
14939;SDS011;11825;51.898;8.202;2023-12-14T03:19:34;6.37;;;5.00;;
14939;SDS011;11825;51.898;8.202;2023-12-14T03:24:38;6.00;;;5.30;;
14939;SDS011;11825;51.898;8.202;2023-12-14T03:35:36;6.23;;;5.30;;
14939;SDS011;11825;51.898;8.202;2023-12-14T03:40:48;8.93;;;6.83;;
14939;SDS011;11825;51.898;8.202;2023-12-14T03:46:07;9.80;;;8.20;;
14939;SDS011;11825;51.898;8.202;2023-12-14T03:51:09;11.03;;;8.40;;
14939;SDS011;11825;51.898;8.202;2023-12-14T03:56:14;8.33;;;6.97;;
14939;SDS011;11825;51.898;8.202;2023-12-14T04:01:49;9.37;;;7.50;;
14939;SDS011;11825;51.898;8.202;2023-12-14T04:06:52;8.87;;;7.47;;
14939;SDS011;11825;51.898;8.202;2023-12-14T04:11:54;8.33;;;7.53;;
14939;SDS011;11825;51.898;8.202;2023-12-14T04:17:03;9.63;;;7.97;;
14939;SDS011;11825;51.898;8.202;2023-12-14T04:33:40;9.00;;;7.63;;
14939;SDS011;11825;51.898;8.202;2023-12-14T04:38:51;8.07;;;7.13;;
14939;SDS011;11825;51.898;8.202;2023-12-14T04:50:08;7.27;;;6.40;;
14939;SDS011;11825;51.898;8.202;2023-12-14T04:55:56;7.63;;;6.23;;
14939;SDS011;11825;51.898;8.202;2023-12-14T05:06:35;7.93;;;6.40;;
14939;SDS011;11825;51.898;8.202;2023-12-14T05:17:15;11.20;;;8.90;;
14939;SDS011;11825;51.898;8.202;2023-12-14T05:22:55;9.33;;;8.23;;
14939;SDS011;11825;51.898;8.202;2023-12-14T05:28:15;9.27;;;8.37;;
14939;SDS011;11825;51.898;8.202;2023-12-14T05:33:51;11.43;;;9.80;;
14939;SDS011;11825;51.898;8.202;2023-12-14T05:38:59;12.33;;;9.87;;
14939;SDS011;11825;51.898;8.202;2023-12-14T05:44:01;15.87;;;11.80;;
14939;SDS011;11825;51.898;8.202;2023-12-14T05:49:09;11.90;;;10.70;;
14939;SDS011;11825;51.898;8.202;2023-12-14T05:54:11;12.33;;;11.07;;
14939;SDS011;11825;51.898;8.202;2023-12-14T05:59:26;12.57;;;11.27;;
14939;SDS011;11825;51.898;8.202;2023-12-14T06:04:45;12.77;;;11.00;;
14939;SDS011;11825;51.898;8.202;2023-12-14T06:09:52;14.10;;;11.20;;
14939;SDS011;11825;51.898;8.202;2023-12-14T06:14:56;13.00;;;11.60;;
14939;SDS011;11825;51.898;8.202;2023-12-14T06:19:58;14.03;;;12.13;;
14939;SDS011;11825;51.898;8.202;2023-12-14T06:25:09;16.67;;;12.23;;
14939;SDS011;11825;51.898;8.202;2023-12-14T06:36:12;14.67;;;13.03;;
14939;SDS011;11825;51.898;8.202;2023-12-14T06:41:23;13.03;;;11.67;;
14939;SDS011;11825;51.898;8.202;2023-12-14T06:46:26;12.93;;;11.37;;
14939;SDS011;11825;51.898;8.202;2023-12-14T06:51:28;12.37;;;11.07;;
14939;SDS011;11825;51.898;8.202;2023-12-14T06:56:30;11.40;;;9.27;;
14939;SDS011;11825;51.898;8.202;2023-12-14T07:01:32;11.03;;;9.23;;
14939;SDS011;11825;51.898;8.202;2023-12-14T07:06:39;10.07;;;9.07;;
14939;SDS011;11825;51.898;8.202;2023-12-14T07:11:41;9.77;;;8.77;;
14939;SDS011;11825;51.898;8.202;2023-12-14T07:16:43;11.40;;;9.53;;
14939;SDS011;11825;51.898;8.202;2023-12-14T07:21:53;10.30;;;9.30;;
14939;SDS011;11825;51.898;8.202;2023-12-14T07:27:00;11.93;;;9.13;;
14939;SDS011;11825;51.898;8.202;2023-12-14T07:32:02;13.83;;;11.37;;
14939;SDS011;11825;51.898;8.202;2023-12-14T07:37:05;10.67;;;9.33;;
14939;SDS011;11825;51.898;8.202;2023-12-14T07:42:07;11.37;;;10.23;;
14939;SDS011;11825;51.898;8.202;2023-12-14T07:47:09;9.37;;;8.37;;
14939;SDS011;11825;51.898;8.202;2023-12-14T07:52:11;8.90;;;7.80;;
14939;SDS011;11825;51.898;8.202;2023-12-14T07:57:14;8.77;;;7.87;;
14939;SDS011;11825;51.898;8.202;2023-12-14T08:02:16;10.60;;;8.43;;
14939;SDS011;11825;51.898;8.202;2023-12-14T08:07:19;9.17;;;8.27;;
14939;SDS011;11825;51.898;8.202;2023-12-14T08:12:26;13.70;;;10.60;;
14939;SDS011;11825;51.898;8.202;2023-12-14T08:17:37;10.23;;;9.23;;
14939;SDS011;11825;51.898;8.202;2023-12-14T08:22:39;9.37;;;8.33;;
14939;SDS011;11825;51.898;8.202;2023-12-14T08:27:46;10.93;;;8.90;;
14939;SDS011;11825;51.898;8.202;2023-12-14T08:32:50;10.80;;;9.70;;
14939;SDS011;11825;51.898;8.202;2023-12-14T08:37:52;10.10;;;8.97;;
14939;SDS011;11825;51.898;8.202;2023-12-14T08:42:54;9.70;;;8.70;;
14939;SDS011;11825;51.898;8.202;2023-12-14T08:48:02;9.70;;;8.67;;
14939;SDS011;11825;51.898;8.202;2023-12-14T08:53:05;10.17;;;8.77;;
14939;SDS011;11825;51.898;8.202;2023-12-14T08:58:08;11.00;;;9.10;;
14939;SDS011;11825;51.898;8.202;2023-12-14T09:03:12;11.43;;;9.80;;
14939;SDS011;11825;51.898;8.202;2023-12-14T09:08:17;9.90;;;8.90;;
14939;SDS011;11825;51.898;8.202;2023-12-14T09:13:28;10.33;;;9.17;;
14939;SDS011;11825;51.898;8.202;2023-12-14T09:18:29;14.30;;;10.80;;
14939;SDS011;11825;51.898;8.202;2023-12-14T09:23:53;10.07;;;8.80;;
14939;SDS011;11825;51.898;8.202;2023-12-14T09:28:54;11.43;;;9.07;;
14939;SDS011;11825;51.898;8.202;2023-12-14T09:33:56;10.47;;;9.33;;
14939;SDS011;11825;51.898;8.202;2023-12-14T09:39:02;11.37;;;9.40;;
14939;SDS011;11825;51.898;8.202;2023-12-14T09:44:07;9.13;;;7.93;;
14939;SDS011;11825;51.898;8.202;2023-12-14T09:49:09;10.13;;;9.13;;
14939;SDS011;11825;51.898;8.202;2023-12-14T09:54:12;11.43;;;9.90;;
14939;SDS011;11825;51.898;8.202;2023-12-14T09:59:13;10.90;;;8.80;;
14939;SDS011;11825;51.898;8.202;2023-12-14T10:04:19;10.73;;;8.93;;
14939;SDS011;11825;51.898;8.202;2023-12-14T10:09:23;8.30;;;7.47;;
14939;SDS011;11825;51.898;8.202;2023-12-14T10:14:25;8.63;;;7.50;;
14939;SDS011;11825;51.898;8.202;2023-12-14T10:19:33;6.93;;;6.23;;
14939;SDS011;11825;51.898;8.202;2023-12-14T10:24:35;8.63;;;6.37;;
14939;SDS011;11825;51.898;8.202;2023-12-14T10:29:37;8.77;;;7.87;;
14939;SDS011;11825;51.898;8.202;2023-12-14T10:34:50;9.17;;;8.27;;
14939;SDS011;11825;51.898;8.202;2023-12-14T10:39:55;9.83;;;8.43;;
14939;SDS011;11825;51.898;8.202;2023-12-14T10:44:57;8.80;;;7.90;;
14939;SDS011;11825;51.898;8.202;2023-12-14T10:50:18;8.87;;;8.00;;
14939;SDS011;11825;51.898;8.202;2023-12-14T10:55:23;8.97;;;8.07;;
14939;SDS011;11825;51.898;8.202;2023-12-14T11:00:32;8.90;;;6.93;;
14939;SDS011;11825;51.898;8.202;2023-12-14T11:05:34;10.87;;;8.80;;
14939;SDS011;11825;51.898;8.202;2023-12-14T11:16:39;10.43;;;8.93;;
14939;SDS011;11825;51.898;8.202;2023-12-14T11:27:12;8.53;;;7.07;;
14939;SDS011;11825;51.898;8.202;2023-12-14T11:32:16;9.50;;;8.27;;
14939;SDS011;11825;51.898;8.202;2023-12-14T11:37:28;9.43;;;8.43;;
14939;SDS011;11825;51.898;8.202;2023-12-14T11:42:42;8.63;;;7.83;;
14939;SDS011;11825;51.898;8.202;2023-12-14T11:47:47;8.30;;;7.50;;
14939;SDS011;11825;51.898;8.202;2023-12-14T11:52:55;9.17;;;8.27;;
14939;SDS011;11825;51.898;8.202;2023-12-14T11:58:06;11.43;;;8.07;;
14939;SDS011;11825;51.898;8.202;2023-12-14T12:03:19;9.57;;;8.60;;
14939;SDS011;11825;51.898;8.202;2023-12-14T12:08:24;9.00;;;8.10;;
14939;SDS011;11825;51.898;8.202;2023-12-14T12:13:26;8.57;;;7.73;;
14939;SDS011;11825;51.898;8.202;2023-12-14T12:18:41;9.10;;;8.20;;
14939;SDS011;11825;51.898;8.202;2023-12-14T12:23:46;9.37;;;8.47;;
14939;SDS011;11825;51.898;8.202;2023-12-14T12:28:49;9.67;;;8.67;;
14939;SDS011;11825;51.898;8.202;2023-12-14T12:33:54;9.57;;;8.57;;
14939;SDS011;11825;51.898;8.202;2023-12-14T12:39:00;10.40;;;9.30;;
14939;SDS011;11825;51.898;8.202;2023-12-14T12:44:17;8.23;;;7.53;;
14939;SDS011;11825;51.898;8.202;2023-12-14T13:10:06;11.30;;;10.20;;
14939;SDS011;11825;51.898;8.202;2023-12-14T13:15:34;11.73;;;10.40;;
14939;SDS011;11825;51.898;8.202;2023-12-14T13:27:35;11.17;;;9.73;;
14939;SDS011;11825;51.898;8.202;2023-12-14T13:46:28;13.60;;;12.20;;
14939;SDS011;11825;51.898;8.202;2023-12-14T13:51:31;13.47;;;12.10;;
14939;SDS011;11825;51.898;8.202;2023-12-14T13:56:38;13.50;;;11.47;;
14939;SDS011;11825;51.898;8.202;2023-12-14T14:01:40;13.13;;;10.37;;
14939;SDS011;11825;51.898;8.202;2023-12-14T14:06:45;12.70;;;10.87;;
14939;SDS011;11825;51.898;8.202;2023-12-14T14:11:58;12.87;;;10.93;;
14939;SDS011;11825;51.898;8.202;2023-12-14T14:17:00;13.30;;;11.77;;
14939;SDS011;11825;51.898;8.202;2023-12-14T14:22:10;13.77;;;11.33;;
14939;SDS011;11825;51.898;8.202;2023-12-14T14:27:14;12.87;;;11.50;;
14939;SDS011;11825;51.898;8.202;2023-12-14T14:32:16;11.90;;;10.27;;
14939;SDS011;11825;51.898;8.202;2023-12-14T14:37:18;13.10;;;11.70;;
14939;SDS011;11825;51.898;8.202;2023-12-14T14:42:26;11.90;;;10.53;;
14939;SDS011;11825;51.898;8.202;2023-12-14T14:47:28;12.90;;;11.60;;
14939;SDS011;11825;51.898;8.202;2023-12-14T14:52:30;12.80;;;11.43;;
14939;SDS011;11825;51.898;8.202;2023-12-14T14:57:42;13.17;;;11.77;;
14939;SDS011;11825;51.898;8.202;2023-12-14T15:02:46;16.03;;;13.37;;
14939;SDS011;11825;51.898;8.202;2023-12-14T15:07:58;13.87;;;12.47;;
14939;SDS011;11825;51.898;8.202;2023-12-14T15:13:04;12.87;;;11.20;;
14939;SDS011;11825;51.898;8.202;2023-12-14T15:18:06;15.00;;;13.40;;
14939;SDS011;11825;51.898;8.202;2023-12-14T15:23:16;12.13;;;10.90;;
14939;SDS011;11825;51.898;8.202;2023-12-14T15:28:18;14.77;;;13.17;;
14939;SDS011;11825;51.898;8.202;2023-12-14T15:33:20;14.73;;;12.93;;
14939;SDS011;11825;51.898;8.202;2023-12-14T15:38:22;14.60;;;12.87;;
14939;SDS011;11825;51.898;8.202;2023-12-14T15:43:38;14.87;;;13.13;;
14939;SDS011;11825;51.898;8.202;2023-12-14T15:48:43;17.00;;;15.20;;
14939;SDS011;11825;51.898;8.202;2023-12-14T15:53:48;16.27;;;14.57;;
14939;SDS011;11825;51.898;8.202;2023-12-14T15:58:50;17.93;;;16.03;;
14939;SDS011;11825;51.898;8.202;2023-12-14T16:03:53;16.80;;;15.00;;
14939;SDS011;11825;51.898;8.202;2023-12-14T16:08:55;19.53;;;17.30;;
14939;SDS011;11825;51.898;8.202;2023-12-14T16:13:57;17.17;;;15.13;;
14939;SDS011;11825;51.898;8.202;2023-12-14T16:19:02;18.30;;;15.97;;
14939;SDS011;11825;51.898;8.202;2023-12-14T16:24:07;21.50;;;16.83;;
14939;SDS011;11825;51.898;8.202;2023-12-14T16:29:12;21.07;;;16.57;;
14939;SDS011;11825;51.898;8.202;2023-12-14T16:34:13;20.33;;;16.67;;
14939;SDS011;11825;51.898;8.202;2023-12-14T16:39:16;22.23;;;18.40;;
14939;SDS011;11825;51.898;8.202;2023-12-14T16:44:22;22.27;;;18.50;;
14939;SDS011;11825;51.898;8.202;2023-12-14T16:55:10;22.10;;;18.03;;
14939;SDS011;11825;51.898;8.202;2023-12-14T17:00:17;21.27;;;16.73;;
14939;SDS011;11825;51.898;8.202;2023-12-14T17:05:35;25.50;;;21.27;;
14939;SDS011;11825;51.898;8.202;2023-12-14T17:10:37;23.90;;;20.03;;
14939;SDS011;11825;51.898;8.202;2023-12-14T17:15:50;24.47;;;18.77;;
14939;SDS011;11825;51.898;8.202;2023-12-14T17:20:58;22.97;;;17.83;;
14939;SDS011;11825;51.898;8.202;2023-12-14T17:39:32;21.63;;;17.57;;
14939;SDS011;11825;51.898;8.202;2023-12-14T17:44:34;22.97;;;17.70;;
14939;SDS011;11825;51.898;8.202;2023-12-14T18:08:43;22.17;;;18.37;;
14939;SDS011;11825;51.898;8.202;2023-12-14T18:18:57;23.20;;;17.83;;
14939;SDS011;11825;51.898;8.202;2023-12-14T18:24:09;25.53;;;18.43;;
14939;SDS011;11825;51.898;8.202;2023-12-14T18:36:47;22.13;;;18.03;;
14939;SDS011;11825;51.898;8.202;2023-12-14T18:48:28;24.50;;;18.53;;
14939;SDS011;11825;51.898;8.202;2023-12-14T18:53:31;24.87;;;19.57;;
14939;SDS011;11825;51.898;8.202;2023-12-14T19:05:08;22.40;;;18.07;;
14939;SDS011;11825;51.898;8.202;2023-12-14T19:10:29;25.57;;;22.07;;
14939;SDS011;11825;51.898;8.202;2023-12-14T19:15:39;22.30;;;18.23;;
14939;SDS011;11825;51.898;8.202;2023-12-14T19:40:31;28.23;;;22.07;;
14939;SDS011;11825;51.898;8.202;2023-12-14T19:46:30;26.33;;;21.00;;
14939;SDS011;11825;51.898;8.202;2023-12-14T19:58:38;23.53;;;18.00;;
14939;SDS011;11825;51.898;8.202;2023-12-14T20:53:31;27.40;;;19.73;;
14939;SDS011;11825;51.898;8.202;2023-12-14T21:31:01;28.23;;;20.37;;
14939;SDS011;11825;51.898;8.202;2023-12-14T21:49:46;25.60;;;18.47;;
14939;SDS011;11825;51.898;8.202;2023-12-14T22:20:21;24.30;;;16.73;;
14939;SDS011;11825;51.898;8.202;2023-12-14T22:25:46;25.17;;;17.20;;
14939;SDS011;11825;51.898;8.202;2023-12-14T22:30:54;28.50;;;17.90;;
14939;SDS011;11825;51.898;8.202;2023-12-14T22:35:59;26.17;;;17.73;;
14939;SDS011;11825;51.898;8.202;2023-12-14T22:41:07;27.13;;;17.00;;
14939;SDS011;11825;51.898;8.202;2023-12-14T22:46:09;25.73;;;17.63;;
14939;SDS011;11825;51.898;8.202;2023-12-14T22:51:17;23.17;;;16.33;;
14939;SDS011;11825;51.898;8.202;2023-12-14T23:07:51;24.80;;;17.73;;
14939;SDS011;11825;51.898;8.202;2023-12-14T23:12:53;25.60;;;18.10;;
14939;SDS011;11825;51.898;8.202;2023-12-14T23:18:24;25.97;;;17.80;;
14939;SDS011;11825;51.898;8.202;2023-12-14T23:23:26;25.70;;;17.17;;
14939;SDS011;11825;51.898;8.202;2023-12-14T23:28:28;26.80;;;17.40;;
14939;SDS011;11825;51.898;8.202;2023-12-14T23:33:30;27.97;;;19.07;;
14939;SDS011;11825;51.898;8.202;2023-12-14T23:38:37;24.97;;;18.50;;
14939;SDS011;11825;51.898;8.202;2023-12-14T23:43:51;24.50;;;16.23;;
14939;SDS011;11825;51.898;8.202;2023-12-14T23:49:09;31.00;;;20.70;;
14939;SDS011;11825;51.898;8.202;2023-12-14T23:54:13;27.97;;;19.17;;
14939;SDS011;11825;51.898;8.202;2023-12-14T23:59:23;31.20;;;20.10;;
